Time;durP1;ratioP1;P1;durP2;ratioP2;P2;SDS_P1;SDS_P2;PMS_P1;PMS_P2;Temp;Humidity;BMP_temperature;BMP_pressure;BME280_temperature;BME280_humidity;BME280_pressure;Samples;Min_cycle;Max_cycle;Signal;HPM_P1;HPM_P2
2021/12/02 00:01:46;;;;;;;9.18;3.10;;;;;;;7.04;61.62;99893.72;5220307;28;20417;-42
2021/12/02 00:04:19;;;;;;;9.48;3.33;;;;;;;7.05;61.49;99894.56;5214143;28;20480;-42
2021/12/02 00:06:54;;;;;;;8.30;3.03;;;;;;;7.04;61.65;99914.72;5214701;28;20420;-42
2021/12/02 00:09:26;;;;;;;11.80;2.80;;;;;;;7.02;61.46;99921.91;5224263;28;20437;-42
2021/12/02 00:11:59;;;;;;;10.23;3.00;;;;;;;7.04;61.55;99927.03;5218022;28;20422;-41
2021/12/02 00:14:39;;;;;;;6.87;2.50;;;;;;;7.03;61.68;99925.38;5218866;28;20488;-44
2021/12/02 00:17:17;;;;;;;7.68;2.72;;;;;;;7.03;61.74;99933.25;5211484;28;20420;-49
2021/12/02 00:23:29;;;;;;;8.48;3.00;;;;;;;7.12;61.81;99932.34;5214501;28;20829;-41
2021/12/02 00:26:40;;;;;;;13.48;3.67;;;;;;;7.16;61.64;99931.09;5217715;28;20416;-48
2021/12/02 00:29:13;;;;;;;10.77;3.15;;;;;;;7.14;61.68;99930.41;5215246;28;20476;-41
2021/12/02 00:31:47;;;;;;;9.65;3.15;;;;;;;7.11;61.69;99931.53;5217571;28;20424;-40
2021/12/02 00:34:22;;;;;;;7.68;3.20;;;;;;;7.07;61.83;99927.56;5218301;28;20913;-42
2021/12/02 00:36:56;;;;;;;12.05;3.40;;;;;;;7.04;61.89;99924.41;5216932;28;20422;-44
2021/12/02 00:39:32;;;;;;;9.57;3.75;;;;;;;6.97;61.87;99934.69;5217334;28;20941;-42
2021/12/02 00:42:06;;;;;;;9.85;3.00;;;;;;;7.01;61.98;99945.72;5222662;28;20423;-44
2021/12/02 00:44:39;;;;;;;11.07;3.17;;;;;;;6.91;62.10;99901.16;5219544;28;20510;-40
2021/12/02 00:47:13;;;;;;;8.75;3.40;;;;;;;6.96;62.09;99906.75;5219732;28;20408;-40
2021/12/02 00:49:48;;;;;;;8.85;2.95;;;;;;;7.03;61.92;99907.84;5218240;28;20469;-44
2021/12/02 00:52:21;;;;;;;6.63;2.85;;;;;;;6.97;62.09;99907.59;5218913;28;20500;-43
2021/12/02 00:54:56;;;;;;;10.45;3.28;;;;;;;6.92;61.98;99901.00;5217325;28;20424;-41
2021/12/02 00:57:30;;;;;;;7.15;2.90;;;;;;;6.87;61.95;99894.53;5220142;28;20502;-41
2021/12/02 01:00:04;;;;;;;7.90;2.95;;;;;;;6.74;62.17;99901.94;5216212;28;20424;-41
2021/12/02 01:02:39;;;;;;;8.52;2.95;;;;;;;6.66;62.33;99923.69;5218402;28;21581;-41
2021/12/02 01:05:12;;;;;;;3.92;1.77;;;;;;;6.67;62.43;99938.47;5230416;28;20396;-45
2021/12/02 01:07:45;;;;;;;5.78;3.17;;;;;;;6.67;62.53;99925.34;5223867;28;20479;-41
2021/12/02 01:10:21;;;;;;;4.93;2.07;;;;;;;6.61;62.58;99918.06;5231208;28;20495;-43
2021/12/02 01:12:53;;;;;;;5.07;1.65;;;;;;;6.63;62.50;99926.63;5224665;28;20917;-42
2021/12/02 01:16:03;;;;;;;11.43;2.80;;;;;;;6.67;62.32;99917.47;5227516;28;20465;-41
2021/12/02 01:18:36;;;;;;;12.30;2.90;;;;;;;6.67;62.25;99909.59;5222424;28;20426;-42
2021/12/02 01:21:13;;;;;;;7.33;2.90;;;;;;;6.69;62.43;99913.72;5224178;28;20420;-46
2021/12/02 01:23:49;;;;;;;8.32;3.00;;;;;;;6.69;62.22;99918.16;5225427;28;20420;-40
2021/12/02 01:26:24;;;;;;;19.13;3.00;;;;;;;6.68;62.51;99924.34;5218691;28;20680;-41
2021/12/02 01:28:58;;;;;;;10.07;3.80;;;;;;;6.65;62.37;99919.41;5225616;28;20812;-41
2021/12/02 01:31:32;;;;;;;7.57;2.72;;;;;;;6.63;62.41;99924.00;5222307;28;20492;-47
2021/12/02 01:34:08;;;;;;;6.82;2.83;;;;;;;6.60;62.84;99926.91;5220930;28;20407;-40
2021/12/02 01:36:42;;;;;;;11.00;3.35;;;;;;;6.55;62.82;99929.94;5229078;28;20514;-42
2021/12/02 01:39:15;;;;;;;4.03;1.90;;;;;;;6.51;62.78;99939.09;5223277;28;20504;-42
2021/12/02 01:41:52;;;;;;;9.60;2.50;;;;;;;6.48;62.73;99939.38;5227504;28;20419;-42
2021/12/02 01:44:28;;;;;;;7.25;1.95;;;;;;;6.45;62.84;99935.25;5222100;28;20446;-43
2021/12/02 01:47:02;;;;;;;3.90;2.10;;;;;;;6.39;62.90;99933.19;5224644;28;20542;-45
2021/12/02 01:49:43;;;;;;;13.23;3.08;;;;;;;6.35;63.11;99929.22;5230187;28;20424;-41
2021/12/02 01:52:16;;;;;;;8.43;3.10;;;;;;;6.40;62.89;99934.03;5224209;28;20426;-42
2021/12/02 01:54:49;;;;;;;10.60;3.00;;;;;;;6.42;63.03;99934.72;5225617;28;20500;-41
2021/12/02 01:57:37;;;;;;;19.25;3.70;;;;;;;6.46;62.67;99936.06;5224749;28;20396;-42
2021/12/02 02:00:15;;;;;;;7.95;3.10;;;;;;;6.47;62.82;99937.72;5222431;28;20927;-41
2021/12/02 02:02:49;;;;;;;12.52;3.78;;;;;;;6.46;62.72;99939.50;5226800;28;20431;-40
2021/12/02 02:05:22;;;;;;;10.18;3.47;;;;;;;6.50;63.03;99941.84;5222258;28;20399;-45
2021/12/02 02:08:02;;;;;;;11.57;2.92;;;;;;;6.53;62.90;99947.63;5225239;28;20519;-41
2021/12/02 02:10:38;;;;;;;13.90;3.85;;;;;;;6.48;63.00;99928.88;5224954;28;20510;-42
2021/12/02 02:13:14;;;;;;;10.15;3.10;;;;;;;6.50;63.00;99931.34;5221997;28;20510;-41
2021/12/02 02:15:51;;;;;;;11.65;3.20;;;;;;;6.53;63.03;99936.31;5224885;28;20762;-41
2021/12/02 02:18:24;;;;;;;8.95;2.33;;;;;;;6.59;63.05;99946.22;5220918;28;20443;-43
2021/12/02 02:21:02;;;;;;;6.85;2.70;;;;;;;6.61;62.92;99933.78;5225552;28;20446;-41
2021/12/02 02:23:39;;;;;;;15.25;2.72;;;;;;;6.58;63.13;99923.59;5222328;28;20853;-40
2021/12/02 02:26:12;;;;;;;8.35;2.72;;;;;;;6.61;62.76;99944.28;5218616;28;20963;-41
2021/12/02 02:28:45;;;;;;;6.93;2.50;;;;;;;6.66;63.05;99937.63;5220000;28;21123;-41
2021/12/02 02:31:18;;;;;;;10.68;2.65;;;;;;;6.69;62.83;99941.78;5224530;28;20536;-41
2021/12/02 02:33:52;;;;;;;10.82;3.03;;;;;;;6.74;63.00;99947.38;5227007;28;20411;-44
2021/12/02 02:36:30;;;;;;;8.10;3.13;;;;;;;6.76;63.03;99948.06;5222453;28;20512;-42
2021/12/02 02:39:04;;;;;;;14.63;3.67;;;;;;;6.75;62.94;99956.06;5221642;28;20891;-42
2021/12/02 02:41:41;;;;;;;14.57;3.10;;;;;;;6.74;63.07;99960.50;5226020;28;20514;-41
2021/12/02 02:44:14;;;;;;;14.60;2.90;;;;;;;6.65;63.04;99945.63;5221820;28;20933;-41
2021/12/02 02:46:47;;;;;;;10.82;3.28;;;;;;;6.74;63.08;99959.69;5221375;28;20510;-45
2021/12/02 02:49:20;;;;;;;6.43;2.85;;;;;;;6.77;63.28;99954.97;5225624;28;20416;-41
2021/12/02 02:51:55;;;;;;;5.65;2.15;;;;;;;6.77;63.07;99962.84;5217437;28;20415;-44
2021/12/02 02:54:28;;;;;;;5.63;1.98;;;;;;;6.74;63.21;99962.31;5224639;28;20455;-51
2021/12/02 02:57:04;;;;;;;16.58;2.47;;;;;;;6.70;63.25;99959.16;5221746;28;20504;-41
2021/12/02 02:59:54;;;;;;;7.75;2.60;;;;;;;6.74;63.15;99955.25;5216709;28;20432;-41
2021/12/02 03:02:33;;;;;;;6.93;2.92;;;;;;;6.77;63.11;99954.97;5217690;28;20428;-49
2021/12/02 03:05:18;;;;;;;6.70;2.17;;;;;;;6.81;62.83;99953.69;5221986;28;20423;-40
2021/12/02 03:07:55;;;;;;;7.43;2.17;;;;;;;6.85;62.91;99960.31;5220925;28;20928;-40
2021/12/02 03:10:41;;;;;;;11.27;3.10;;;;;;;6.85;62.88;99967.38;5224317;28;20558;-40
2021/12/02 03:13:20;;;;;;;9.40;2.80;;;;;;;6.85;63.07;99988.38;5219613;28;20427;-40
2021/12/02 03:18:44;;;;;;;9.18;2.53;;;;;;;6.77;62.97;99991.69;5225579;28;20392;-42
2021/12/02 03:21:21;;;;;;;5.55;2.42;;;;;;;6.70;63.11;99985.41;5224635;28;20407;-40
2021/12/02 03:23:59;;;;;;;9.07;2.70;;;;;;;6.61;63.29;99986.25;5222743;28;20806;-41
2021/12/02 03:26:32;;;;;;;5.22;2.25;;;;;;;6.57;63.22;99985.72;5220459;28;20409;-41
2021/12/02 03:29:06;;;;;;;7.40;2.10;;;;;;;6.44;63.52;99972.94;5222046;28;20835;-43
2021/12/02 03:31:38;;;;;;;5.85;2.78;;;;;;;6.45;63.27;99966.72;5222400;28;20862;-42
2021/12/02 03:34:11;;;;;;;10.20;2.57;;;;;;;6.47;63.01;99958.69;5222402;28;20434;-40
2021/12/02 03:36:53;;;;;;;7.70;2.40;;;;;;;6.47;62.90;99967.41;5226278;28;20407;-49
2021/12/02 03:39:26;;;;;;;9.13;3.17;;;;;;;6.50;62.75;99947.09;5224825;28;20739;-42
2021/12/02 03:41:59;;;;;;;9.63;2.87;;;;;;;6.50;62.76;99952.34;5222763;28;20433;-39
2021/12/02 03:44:32;;;;;;;10.85;2.67;;;;;;;6.43;62.73;99968.66;5224685;28;20428;-41
2021/12/02 03:47:05;;;;;;;8.27;2.45;;;;;;;6.44;62.91;99980.81;5219905;28;20483;-40
2021/12/02 03:49:40;;;;;;;7.10;2.70;;;;;;;6.36;63.19;99977.25;5222877;28;20870;-41
2021/12/02 03:52:12;;;;;;;7.80;2.70;;;;;;;6.31;63.13;99982.09;5222456;28;20403;-40
2021/12/02 03:54:46;;;;;;;8.50;3.20;;;;;;;6.26;63.14;99972.03;5226066;28;20722;-40
2021/12/02 03:57:18;;;;;;;15.05;3.63;;;;;;;6.01;63.14;99928.94;5225948;28;20404;-40
2021/12/02 03:59:51;;;;;;;8.77;2.77;;;;;;;6.27;63.11;99978.13;5223028;28;21050;-42
2021/12/02 04:02:23;;;;;;;11.02;3.40;;;;;;;6.21;63.02;99975.09;5220205;28;20408;-40
2021/12/02 04:04:55;;;;;;;8.85;2.60;;;;;;;6.16;63.24;99979.94;5224855;28;20436;-41
2021/12/02 04:07:28;;;;;;;15.50;3.38;;;;;;;6.15;63.35;99973.03;5224565;28;20404;-45
2021/12/02 04:10:02;;;;;;;11.82;2.92;;;;;;;6.12;63.17;99978.56;5221055;28;20502;-42
2021/12/02 04:12:46;;;;;;;10.50;2.90;;;;;;;6.09;63.06;99975.41;5232618;27;20753;-41
2021/12/02 04:15:23;;;;;;;16.52;2.67;;;;;;;5.98;63.38;99971.97;5227143;28;20498;-42
2021/12/02 04:17:56;;;;;;;7.03;2.53;;;;;;;5.92;63.30;99967.28;5222124;28;20424;-41
2021/12/02 04:20:28;;;;;;;15.40;2.92;;;;;;;5.88;63.39;99962.44;5229249;28;20945;-44
2021/12/02 04:23:00;;;;;;;13.10;3.15;;;;;;;5.87;63.23;99966.84;5230485;28;20408;-40
2021/12/02 04:25:34;;;;;;;12.73;3.60;;;;;;;5.84;63.40;99967.13;5230819;28;20408;-46
2021/12/02 04:28:07;;;;;;;19.17;3.50;;;;;;;5.79;63.47;99964.09;5220777;28;20498;-41
2021/12/02 04:30:39;;;;;;;12.85;3.03;;;;;;;5.79;63.58;99969.34;5225361;28;20427;-42
2021/12/02 04:33:11;;;;;;;12.18;2.80;;;;;;;5.79;63.43;99982.44;5228654;28;20411;-41
2021/12/02 04:35:52;;;;;;;5.97;2.22;;;;;;;5.80;63.70;99981.50;5228026;28;20885;-42
2021/12/02 04:38:25;;;;;;;8.87;2.60;;;;;;;5.68;63.93;99983.44;5218712;28;20427;-40
2021/12/02 04:40:59;;;;;;;7.45;2.65;;;;;;;5.71;63.80;99995.44;5229711;28;20486;-42
2021/12/02 04:43:31;;;;;;;5.13;2.70;;;;;;;5.61;63.83;99976.28;5228264;28;20869;-40
2021/12/02 04:46:03;;;;;;;7.03;2.83;;;;;;;5.66;64.01;100000.25;5225709;28;20508;-41
2021/12/02 04:48:36;;;;;;;6.45;2.40;;;;;;;5.63;64.13;100009.22;5226074;28;20490;-41
2021/12/02 04:53:54;;;;;;;12.00;3.03;;;;;;;5.62;64.10;100015.44;5223297;28;20403;-40
2021/12/02 04:56:28;;;;;;;6.35;2.63;;;;;;;5.58;64.11;100015.84;5228178;28;20531;-40
2021/12/02 04:59:00;;;;;;;3.83;2.45;;;;;;;5.28;64.15;99978.34;5226689;28;20408;-41
2021/12/02 05:01:33;;;;;;;7.63;2.43;;;;;;;5.52;64.27;100014.59;5218341;28;20428;-41
2021/12/02 05:04:05;;;;;;;10.07;2.75;;;;;;;5.55;64.26;100012.53;5226213;28;20418;-41
2021/12/02 05:06:38;;;;;;;9.73;2.70;;;;;;;5.57;64.10;100022.03;5224972;28;20540;-41
2021/12/02 05:09:10;;;;;;;5.73;2.10;;;;;;;5.62;64.29;100014.59;5220580;28;20419;-42
2021/12/02 05:11:44;;;;;;;9.07;2.40;;;;;;;5.68;64.35;100016.66;5223037;28;20404;-44
2021/12/02 05:14:17;;;;;;;6.88;2.40;;;;;;;5.72;64.21;100013.63;5230596;28;20416;-42
2021/12/02 05:16:49;;;;;;;9.10;3.45;;;;;;;5.72;64.25;100018.84;5225325;28;20423;-41
2021/12/02 05:19:21;;;;;;;10.70;2.75;;;;;;;5.70;64.33;100012.13;5223101;28;20476;-40
2021/12/02 05:21:54;;;;;;;7.75;3.10;;;;;;;5.66;64.33;100014.19;5228464;28;20737;-45
2021/12/02 05:24:26;;;;;;;8.97;3.27;;;;;;;5.68;64.43;100019.28;5229056;28;20775;-41
2021/12/02 05:27:00;;;;;;;7.60;3.40;;;;;;;5.68;64.17;100019.28;5218400;28;20420;-41
2021/12/02 05:29:32;;;;;;;9.40;3.83;;;;;;;5.67;64.17;100009.78;5228830;28;20515;-43
2021/12/02 05:32:05;;;;;;;14.43;4.68;;;;;;;5.64;64.35;100000.41;5221380;28;20775;-43
2021/12/02 05:34:38;;;;;;;12.33;3.87;;;;;;;5.60;64.28;99992.94;5227571;28;20419;-41
2021/12/02 05:37:10;;;;;;;12.95;4.18;;;;;;;5.53;64.28;99990.88;5226369;28;20782;-42
2021/12/02 05:39:43;;;;;;;11.98;3.40;;;;;;;5.49;64.46;99984.28;5228119;28;20950;-41
2021/12/02 05:42:17;;;;;;;8.27;3.05;;;;;;;5.46;64.25;99978.50;5224247;28;20415;-41
2021/12/02 05:44:49;;;;;;;12.27;4.20;;;;;;;5.42;64.11;99977.09;5222576;28;20471;-43
2021/12/02 05:47:22;;;;;;;11.30;4.05;;;;;;;5.45;64.19;99990.75;5227584;28;20411;-39
2021/12/02 05:49:54;;;;;;;10.07;2.58;;;;;;;5.44;64.20;100001.34;5223458;28;20421;-41
2021/12/02 05:52:26;;;;;;;11.30;3.67;;;;;;;5.41;64.05;100006.88;5229949;28;20412;-40
2021/12/02 05:54:59;;;;;;;9.00;2.83;;;;;;;5.39;64.20;100004.41;5225173;28;20404;-40
2021/12/02 05:57:33;;;;;;;7.88;2.33;;;;;;;5.40;64.08;100006.03;5228398;28;20411;-43
2021/12/02 06:00:07;;;;;;;8.10;3.10;;;;;;;5.40;63.97;100008.66;5219852;28;20528;-40
2021/12/02 06:02:40;;;;;;;8.25;3.42;;;;;;;5.41;64.09;100001.63;5224191;28;20508;-42
2021/12/02 06:05:17;;;;;;;8.15;3.38;;;;;;;5.42;63.90;100004.13;5222669;28;20396;-43
2021/12/02 06:07:52;;;;;;;12.20;3.33;;;;;;;5.45;63.99;100014.34;5223336;28;20427;-42
2021/12/02 06:10:25;;;;;;;15.93;4.00;;;;;;;5.48;64.06;100019.28;5223626;28;20891;-44
2021/12/02 06:12:59;;;;;;;9.90;3.25;;;;;;;5.48;63.83;100008.81;5226210;28;20416;-40
2021/12/02 06:15:31;;;;;;;10.88;3.40;;;;;;;5.54;64.08;100013.50;5223391;28;20794;-40
2021/12/02 06:18:04;;;;;;;16.30;3.38;;;;;;;5.57;63.85;100016.81;5222841;28;20481;-41
2021/12/02 06:20:36;;;;;;;10.23;3.17;;;;;;;5.59;64.12;100020.94;5226320;28;20432;-39
2021/12/02 06:23:08;;;;;;;10.52;3.92;;;;;;;5.56;63.97;100031.69;5224539;28;20425;-40
2021/12/02 06:25:47;;;;;;;10.18;2.97;;;;;;;5.43;64.19;100052.91;5219105;28;20408;-44
2021/12/02 06:28:21;;;;;;;8.35;3.22;;;;;;;5.29;64.07;100035.78;5222653;28;20793;-41
2021/12/02 06:30:54;;;;;;;10.38;3.72;;;;;;;5.21;64.49;100042.69;5221973;28;20490;-42
2021/12/02 06:33:26;;;;;;;13.23;3.30;;;;;;;5.18;64.25;100042.94;5227863;28;20861;-45
2021/12/02 06:35:59;;;;;;;10.82;3.97;;;;;;;5.17;63.99;100051.75;5228222;28;20524;-43
2021/12/02 06:38:31;;;;;;;12.32;3.03;;;;;;;5.13;64.35;100045.97;5228070;28;20887;-40
2021/12/02 06:41:04;;;;;;;11.33;3.63;;;;;;;5.16;64.24;100055.34;5223878;28;20518;-42
2021/12/02 06:43:37;;;;;;;14.60;4.82;;;;;;;5.15;64.07;100061.53;5214844;28;20777;-41
2021/12/02 06:46:10;;;;;;;17.40;4.32;;;;;;;5.14;64.15;100067.72;5224469;28;20951;-40
2021/12/02 06:48:42;;;;;;;16.33;5.38;;;;;;;5.09;64.10;100074.19;5229288;28;20409;-44
2021/12/02 06:51:15;;;;;;;8.27;3.50;;;;;;;5.01;64.37;100079.25;5222234;28;20417;-41
2021/12/02 06:53:49;;;;;;;9.82;3.28;;;;;;;4.83;64.84;100073.84;5221096;28;20792;-45
2021/12/02 06:56:21;;;;;;;10.60;3.78;;;;;;;4.89;64.60;100088.16;5229820;28;20906;-42
2021/12/02 06:58:55;;;;;;;6.03;3.60;;;;;;;4.93;64.71;100091.38;5223664;28;20751;-44
2021/12/02 07:01:28;;;;;;;6.70;2.87;;;;;;;4.87;64.74;100091.88;5225413;28;20495;-46
2021/12/02 07:04:00;;;;;;;7.63;2.65;;;;;;;4.80;64.70;100102.03;5220708;28;20935;-42
2021/12/02 07:06:32;;;;;;;5.10;2.83;;;;;;;4.79;64.85;100100.38;5216147;28;20907;-41
2021/12/02 07:09:05;;;;;;;7.78;2.65;;;;;;;4.70;64.94;100088.06;5218840;28;20906;-42
2021/12/02 07:11:37;;;;;;;6.43;2.97;;;;;;;4.61;65.23;100093.16;5216107;28;20438;-44
2021/12/02 07:14:14;;;;;;;6.70;2.95;;;;;;;4.47;65.11;100085.63;5223782;28;20493;-42
2021/12/02 07:16:46;;;;;;;5.30;3.33;;;;;;;4.40;65.13;100092.34;5225115;28;20892;-41
2021/12/02 07:19:18;;;;;;;7.15;3.05;;;;;;;4.41;65.06;100085.31;5220187;28;20419;-42
2021/12/02 07:21:51;;;;;;;9.05;3.22;;;;;;;4.49;65.13;100086.34;5224804;28;20531;-48
2021/12/02 07:24:23;;;;;;;8.68;3.65;;;;;;;4.55;64.79;100091.06;5210556;28;20433;-42
2021/12/02 07:26:57;;;;;;;6.80;2.53;;;;;;;4.62;64.82;100107.88;5218195;28;20582;-41
2021/12/02 07:29:31;;;;;;;11.40;3.78;;;;;;;4.68;64.75;100108.31;5217474;28;20511;-42
2021/12/02 07:32:05;;;;;;;4.95;2.97;;;;;;;4.72;64.31;100122.78;5225529;28;20415;-40
2021/12/02 07:34:38;;;;;;;7.15;3.13;;;;;;;4.76;64.35;100118.94;5225930;28;20404;-43
2021/12/02 07:37:13;;;;;;;6.20;3.30;;;;;;;4.76;64.35;100122.38;5217353;28;20534;-43
2021/12/02 07:39:47;;;;;;;5.90;3.47;;;;;;;4.79;64.28;100140.44;5215595;28;20406;-42
2021/12/02 07:42:19;;;;;;;11.47;3.20;;;;;;;4.81;64.13;100142.94;5223655;28;21005;-42
2021/12/02 07:44:53;;;;;;;13.23;4.43;;;;;;;4.86;64.33;100148.59;5222992;28;20771;-40
2021/12/02 07:47:26;;;;;;;11.52;4.22;;;;;;;4.88;64.24;100157.16;5215609;28;20817;-42
2021/12/02 07:49:59;;;;;;;12.13;4.50;;;;;;;4.93;64.21;100156.78;5225684;28;20410;-42
2021/12/02 07:52:34;;;;;;;11.60;4.10;;;;;;;4.97;64.36;100158.16;5233473;28;20422;-42
2021/12/02 07:55:08;;;;;;;15.40;4.55;;;;;;;5.01;64.13;100159.56;5223665;28;20404;-44
2021/12/02 07:57:42;;;;;;;10.80;3.17;;;;;;;5.05;64.12;100169.66;5222844;28;20531;-45
2021/12/02 08:00:19;;;;;;;12.88;3.70;;;;;;;4.97;64.30;100171.25;5223033;28;20427;-41
2021/12/02 08:02:54;;;;;;;9.15;3.58;;;;;;;5.09;64.30;100186.72;5225417;28;20479;-43
2021/12/02 08:05:27;;;;;;;13.75;3.63;;;;;;;5.12;64.14;100184.81;5216574;28;20418;-46
2021/12/02 08:07:59;;;;;;;15.18;3.40;;;;;;;5.09;64.18;100175.44;5227108;28;20416;-42
2021/12/02 08:10:32;;;;;;;8.02;3.55;;;;;;;5.03;64.24;100165.50;5225693;28;20407;-41
2021/12/02 08:13:05;;;;;;;11.32;2.85;;;;;;;5.09;64.24;100163.19;5225424;28;20410;-41
2021/12/02 08:15:39;;;;;;;8.77;2.65;;;;;;;5.11;64.54;100162.22;5227169;28;20426;-41
2021/12/02 08:18:12;;;;;;;11.98;2.90;;;;;;;5.10;64.24;100150.91;5224874;28;20423;-41
2021/12/02 08:20:45;;;;;;;8.57;3.38;;;;;;;5.14;64.35;100161.94;5226673;28;20418;-40
2021/12/02 08:23:18;;;;;;;9.68;3.38;;;;;;;5.19;64.26;100170.25;5227210;28;20982;-41
2021/12/02 08:25:50;;;;;;;11.25;3.13;;;;;;;5.18;64.28;100165.97;5216350;28;20463;-43
2021/12/02 08:28:23;;;;;;;8.97;2.90;;;;;;;5.14;64.32;100165.41;5211958;28;20502;-46
2021/12/02 08:30:58;;;;;;;8.05;3.10;;;;;;;5.09;64.49;100171.03;5222380;28;20428;-42
2021/12/02 08:33:31;;;;;;;8.30;3.28;;;;;;;5.09;64.27;100181.50;5223178;28;20428;-42
2021/12/02 08:36:03;;;;;;;16.43;3.10;;;;;;;5.07;64.24;100188.66;5212202;28;20514;-42
2021/12/02 08:38:36;;;;;;;14.02;3.28;;;;;;;5.06;64.43;100187.00;5212428;28;20452;-42
2021/12/02 08:41:11;;;;;;;9.18;3.10;;;;;;;5.05;64.47;100189.75;5215314;28;20456;-40
2021/12/02 08:43:43;;;;;;;13.50;3.47;;;;;;;5.03;64.45;100187.25;5220064;28;20497;-42
2021/12/02 08:46:20;;;;;;;11.93;3.60;;;;;;;5.05;64.29;100187.97;5213471;28;20426;-43
2021/12/02 08:48:53;;;;;;;5.75;3.13;;;;;;;5.07;64.45;100195.66;5220688;28;20408;-44
2021/12/02 08:51:26;;;;;;;8.88;3.60;;;;;;;5.09;64.57;100197.19;5225231;28;20416;-41
2021/12/02 08:53:58;;;;;;;10.95;3.70;;;;;;;5.11;64.50;100204.09;5225998;28;20480;-41
2021/12/02 08:56:31;;;;;;;8.13;3.25;;;;;;;5.09;64.47;100207.66;5225060;28;20829;-41
2021/12/02 08:59:03;;;;;;;9.90;3.25;;;;;;;5.17;64.71;100232.38;5222795;28;20399;-42
2021/12/02 09:01:37;;;;;;;12.40;3.25;;;;;;;5.14;64.64;100243.94;5227212;28;20408;-40
2021/12/02 09:04:10;;;;;;;8.15;3.80;;;;;;;5.06;64.99;100257.66;5223577;28;20412;-44
2021/12/02 09:06:42;;;;;;;10.52;3.30;;;;;;;4.99;64.94;100253.09;5228782;28;24636;-42
2021/12/02 09:09:14;;;;;;;7.67;3.13;;;;;;;4.94;65.12;100263.91;5229340;28;21233;-42
2021/12/02 09:11:49;;;;;;;12.18;4.30;;;;;;;4.92;65.29;100267.63;5225242;28;20410;-42
2021/12/02 09:14:22;;;;;;;9.50;3.42;;;;;;;4.94;65.35;100274.38;5225764;28;20793;-44
2021/12/02 09:16:56;;;;;;;8.10;4.07;;;;;;;5.08;65.10;100274.06;5220494;28;20408;-43
2021/12/02 09:19:28;;;;;;;6.85;3.20;;;;;;;5.12;65.18;100263.34;5230958;28;20427;-42
2021/12/02 09:22:01;;;;;;;7.80;3.10;;;;;;;5.31;65.13;100289.63;5224780;28;20414;-41
2021/12/02 09:24:33;;;;;;;7.60;3.33;;;;;;;5.33;64.86;100261.53;5224724;28;20419;-43
2021/12/02 09:27:06;;;;;;;11.82;4.90;;;;;;;5.40;64.78;100254.81;5230347;28;20404;-42
2021/12/02 09:29:38;;;;;;;6.07;3.60;;;;;;;5.55;64.80;100271.84;5227028;28;20416;-44
2021/12/02 09:32:12;;;;;;;5.22;2.97;;;;;;;5.57;64.61;100282.16;5223546;28;21093;-46
2021/12/02 09:34:45;;;;;;;7.78;3.00;;;;;;;5.66;64.94;100297.09;5232052;28;20418;-42
2021/12/02 09:37:17;;;;;;;11.63;3.97;;;;;;;5.72;64.79;100306.22;5232716;28;21334;-40
2021/12/02 09:39:49;;;;;;;8.73;3.97;;;;;;;5.75;64.71;100303.34;5220986;28;20427;-45
2021/12/02 09:42:22;;;;;;;6.43;3.38;;;;;;;5.77;64.79;100309.31;5221019;28;20494;-40
2021/12/02 09:44:59;;;;;;;9.48;3.40;;;;;;;5.65;64.84;100302.50;5221563;28;20997;-42
2021/12/02 09:47:37;;;;;;;8.32;4.00;;;;;;;5.68;64.79;100323.19;5221760;28;20441;-44
2021/12/02 09:50:16;;;;;;;12.93;3.97;;;;;;;5.64;64.91;100332.28;5224585;28;20429;-43
2021/12/02 09:52:49;;;;;;;9.02;4.28;;;;;;;5.68;64.75;100349.38;5219651;28;20491;-43
2021/12/02 09:55:23;;;;;;;7.75;3.60;;;;;;;5.60;65.01;100364.91;5222168;28;20923;-41
2021/12/02 09:57:57;;;;;;;10.60;3.55;;;;;;;5.53;65.15;100378.53;5223826;28;20431;-41
2021/12/02 10:00:38;;;;;;;5.65;2.55;;;;;;;5.37;65.29;100357.19;5222138;28;20797;-41
2021/12/02 10:03:24;;;;;;;3.97;2.37;;;;;;;5.34;65.20;100341.75;5222471;28;20980;-41
2021/12/02 10:06:04;;;;;;;4.70;2.00;;;;;;;5.26;65.27;100359.88;5222071;28;20432;-43
2021/12/02 10:08:47;;;;;;;3.88;2.60;;;;;;;5.20;65.37;100336.81;5219318;28;20421;-47
2021/12/02 10:11:30;;;;;;;3.70;2.90;;;;;;;5.31;65.19;100329.72;5226788;28;20447;-41
2021/12/02 10:14:16;;;;;;;5.65;3.00;;;;;;;5.39;64.85;100334.34;5223485;28;20404;-44
2021/12/02 10:16:51;;;;;;;3.95;2.38;;;;;;;5.44;64.97;100341.81;5222789;28;20416;-41
2021/12/02 10:19:29;;;;;;;6.85;2.40;;;;;;;5.45;64.81;100348.69;5220592;28;20756;-48
2021/12/02 10:22:05;;;;;;;3.50;2.40;;;;;;;5.54;64.60;100361.00;5225918;28;20445;-41
2021/12/02 10:24:43;;;;;;;6.40;2.65;;;;;;;5.59;64.71;100363.25;5220315;28;20780;-46
2021/12/02 10:27:15;;;;;;;4.33;2.77;;;;;;;5.63;64.52;100369.88;5221665;28;20971;-46
2021/12/02 10:29:48;;;;;;;6.30;2.15;;;;;;;5.68;64.75;100370.34;5225957;28;20752;-42
2021/12/02 10:32:25;;;;;;;6.93;3.08;;;;;;;5.72;64.48;100371.72;5227310;28;20951;-41
2021/12/02 10:35:01;;;;;;;4.05;2.20;;;;;;;5.74;64.70;100370.66;5221436;28;20971;-42
2021/12/02 10:37:37;;;;;;;3.70;2.90;;;;;;;5.78;64.61;100360.72;5224974;28;20914;-43
2021/12/02 10:40:14;;;;;;;8.52;3.10;;;;;;;5.81;64.40;100367.50;5226515;28;20905;-42
2021/12/02 10:42:48;;;;;;;7.93;3.63;;;;;;;5.83;64.46;100373.47;5224600;28;20435;-42
2021/12/02 10:45:23;;;;;;;8.43;3.30;;;;;;;5.84;64.43;100369.88;5223852;28;20517;-42
2021/12/02 10:47:57;;;;;;;6.60;2.87;;;;;;;5.82;64.50;100377.84;5219579;28;20524;-42
2021/12/02 10:50:40;;;;;;;8.88;3.33;;;;;;;5.81;64.34;100376.19;5224229;28;20419;-43
2021/12/02 10:53:12;;;;;;;6.65;2.97;;;;;;;5.80;64.41;100373.72;5216272;28;20428;-41
2021/12/02 10:55:59;;;;;;;6.40;3.90;;;;;;;5.78;64.42;100379.06;5223203;28;20479;-41
2021/12/02 10:58:32;;;;;;;13.07;4.82;;;;;;;5.77;64.19;100380.03;5221216;28;20410;-43
2021/12/02 11:01:05;;;;;;;12.30;6.07;;;;;;;5.76;64.50;100394.09;5219542;28;20923;-42
2021/12/02 11:03:37;;;;;;;8.85;6.13;;;;;;;5.79;64.53;100388.59;5217837;28;20409;-42
2021/12/02 11:06:12;;;;;;;9.90;5.22;;;;;;;5.78;64.64;100389.56;5217894;28;20967;-46
2021/12/02 11:08:44;;;;;;;7.97;4.95;;;;;;;5.81;64.39;100381.44;5224129;28;20397;-45
2021/12/02 11:11:23;;;;;;;7.83;3.87;;;;;;;5.91;64.08;100392.78;5219328;28;20920;-42
2021/12/02 11:13:56;;;;;;;10.53;4.43;;;;;;;6.02;64.32;100401.59;5220984;28;20914;-42
2021/12/02 11:17:06;;;;;;;7.28;3.30;;;;;;;6.00;64.49;100410.38;5226832;28;20423;-41
2021/12/02 11:19:38;;;;;;;7.43;3.78;;;;;;;5.96;64.45;100406.38;5227241;28;20895;-42
2021/12/02 11:22:15;;;;;;;5.60;3.47;;;;;;;6.00;64.48;100415.63;5229492;28;20420;-41
2021/12/02 11:24:50;;;;;;;5.63;2.95;;;;;;;6.04;64.28;100403.13;5228204;28;20776;-43
2021/12/02 11:27:26;;;;;;;10.63;4.03;;;;;;;6.08;64.54;100401.06;5221304;28;20406;-42
2021/12/02 11:30:04;;;;;;;8.02;2.90;;;;;;;6.01;64.64;100395.50;5227610;28;20503;-42
2021/12/02 11:32:50;;;;;;;4.35;2.97;;;;;;;6.18;64.40;100404.53;5220623;28;20510;-42
2021/12/02 11:35:31;;;;;;;8.10;3.05;;;;;;;6.23;64.40;100397.13;5215545;28;20482;-40
2021/12/02 11:38:09;;;;;;;9.40;2.63;;;;;;;6.27;64.61;100398.50;5219097;28;20455;-42
2021/12/02 11:40:44;;;;;;;6.88;2.97;;;;;;;6.26;64.62;100391.59;5217924;28;20511;-42
2021/12/02 11:43:20;;;;;;;8.88;2.25;;;;;;;6.32;64.67;100390.22;5212913;28;20860;-43
2021/12/02 11:45:55;;;;;;;5.82;2.80;;;;;;;6.45;64.64;100402.16;5214576;28;20417;-45
2021/12/02 11:48:29;;;;;;;4.85;2.15;;;;;;;6.55;64.44;100396.94;5215726;28;20516;-45
2021/12/02 11:51:06;;;;;;;5.72;2.08;;;;;;;6.67;64.66;100405.53;5212546;28;20467;-43
2021/12/02 11:53:40;;;;;;;4.83;3.03;;;;;;;6.79;64.84;100404.44;5218960;28;20508;-43
2021/12/02 11:56:15;;;;;;;6.65;2.30;;;;;;;6.92;64.67;100412.88;5220070;28;20771;-43
2021/12/02 11:58:54;;;;;;;5.65;2.22;;;;;;;7.01;64.72;100420.91;5214067;28;20413;-42
2021/12/02 12:01:28;;;;;;;4.75;2.35;;;;;;;7.08;64.61;100440.38;5225515;28;20747;-43
2021/12/02 12:04:06;;;;;;;4.25;2.13;;;;;;;7.13;64.76;100441.66;5227557;28;20520;-42
2021/12/02 12:06:41;;;;;;;5.50;2.33;;;;;;;7.20;64.69;100444.53;5217446;28;20518;-42
2021/12/02 12:09:20;;;;;;;5.18;2.10;;;;;;;7.23;64.52;100439.03;5220137;28;20416;-42
2021/12/02 12:11:56;;;;;;;3.15;2.05;;;;;;;7.21;64.72;100443.56;5218331;28;20418;-41
2021/12/02 12:14:37;;;;;;;7.55;2.50;;;;;;;7.16;64.69;100437.91;5225625;28;20434;-44
2021/12/02 12:17:12;;;;;;;7.35;2.70;;;;;;;7.17;64.72;100452.69;5227021;28;20415;-43
2021/12/02 12:19:47;;;;;;;6.88;2.80;;;;;;;7.18;64.76;100443.84;5223643;28;20496;-45